createdAt,value
2018-08-19T00:01:32.085Z,100278.75
2018-08-19T00:04:00.706Z,100285.33
2018-08-19T00:06:29.465Z,100283.79
2018-08-19T00:09:02.365Z,100287.97
2018-08-19T00:11:31.035Z,100283.03
2018-08-19T00:13:59.773Z,100284.84
2018-08-19T00:16:28.614Z,100291.98
2018-08-19T00:18:57.384Z,100285.27
2018-08-19T00:21:26.113Z,100284.89
2018-08-19T00:23:54.813Z,100285.16
2018-08-19T00:26:23.426Z,100283.12
2018-08-19T00:28:52.303Z,100280.31
2018-08-19T00:31:21.198Z,100277.69
2018-08-19T00:33:49.768Z,100286.97
2018-08-19T00:36:32.293Z,100283.77
2018-08-19T00:39:01.033Z,100283.55
2018-08-19T00:41:29.669Z,100286.13
2018-08-19T00:43:58.297Z,100289.10
2018-08-19T00:46:30.440Z,100286.38
2018-08-19T00:49:00.754Z,100290.09
2018-08-19T00:51:29.569Z,100284.28
2018-08-19T00:53:58.619Z,100286.19
2018-08-19T00:56:27.790Z,100288.20
2018-08-19T00:58:56.504Z,100289.43
2018-08-19T01:01:36.321Z,100290.16
2018-08-19T01:04:07.186Z,100286.09
2018-08-19T01:06:41.014Z,100288.20
2018-08-19T01:09:10.514Z,100280.41
2018-08-19T01:11:41.733Z,100280.04
2018-08-19T01:14:12.664Z,100279.69
2018-08-19T01:16:41.576Z,100287.89
2018-08-19T01:19:10.968Z,100290.02
2018-08-19T01:21:39.722Z,100287.83
2018-08-19T01:24:10.813Z,100288.39
2018-08-19T01:26:40.751Z,100279.81
2018-08-19T01:29:10.477Z,100283.69
2018-08-19T01:31:39.418Z,100280.29
2018-08-19T01:34:11.532Z,100284.48
2018-08-19T01:36:40.629Z,100283.05
2018-08-19T01:39:11.258Z,100279.20
2018-08-19T01:41:40.880Z,100273.70
2018-08-19T01:44:13.018Z,100278.75
2018-08-19T01:46:47.011Z,100278.56
2018-08-19T01:49:16.014Z,100279.60
2018-08-19T01:51:45.106Z,100282.34
2018-08-19T01:54:19.985Z,100281.41
2018-08-19T01:56:55.173Z,100284.84
2018-08-19T01:59:31.903Z,100281.02
2018-08-19T02:02:02.616Z,100281.97
2018-08-19T02:04:32.379Z,100286.64
2018-08-19T02:07:01.140Z,100281.22
2018-08-19T02:09:29.845Z,100285.60
2018-08-19T02:11:59.760Z,100288.84
2018-08-19T02:14:28.447Z,100284.27
2018-08-19T02:16:57.673Z,100285.31
2018-08-19T02:19:26.294Z,100281.59
2018-08-19T02:21:55.061Z,100285.50
2018-08-19T02:24:23.790Z,100280.27
2018-08-19T02:26:52.497Z,100279.58
2018-08-19T02:29:33.591Z,100283.50
2018-08-19T02:32:03.516Z,100289.02
2018-08-19T02:34:34.605Z,100284.66
2018-08-19T02:37:07.033Z,100282.73
2018-08-19T02:39:38.234Z,100287.51
2018-08-19T02:42:24.274Z,100289.43
2018-08-19T02:44:55.235Z,100287.13
2018-08-19T02:47:23.984Z,100288.27
2018-08-19T02:49:53.038Z,100288.66
2018-08-19T02:52:26.996Z,100287.23
2018-08-19T02:54:56.582Z,100290.74
2018-08-19T02:57:25.828Z,100296.66
2018-08-19T02:59:54.486Z,100300.83
2018-08-19T03:02:26.054Z,100298.73
2018-08-19T03:04:55.594Z,100303.02
2018-08-19T03:07:26.434Z,100301.39
2018-08-19T03:10:10.800Z,100301.09
2018-08-19T03:12:40.039Z,100301.95
2018-08-19T03:15:10.848Z,100297.95
2018-08-19T03:17:39.932Z,100302.16
2018-08-19T03:20:13.084Z,100301.00
2018-08-19T03:22:42.580Z,100302.92
2018-08-19T03:25:11.904Z,100293.99
2018-08-19T03:27:40.632Z,100295.97
2018-08-19T03:30:11.365Z,100295.11
2018-08-19T03:32:46.424Z,100294.25
2018-08-19T03:35:17.411Z,100297.21
2018-08-19T03:37:46.329Z,100302.27
2018-08-19T03:40:15.105Z,100305.89
2018-08-19T03:42:43.765Z,100306.95
2018-08-19T03:45:17.614Z,100305.20
2018-08-19T03:47:46.859Z,100305.41
2018-08-19T03:50:21.817Z,100302.53
2018-08-19T03:52:51.097Z,100302.53
2018-08-19T03:55:25.376Z,100298.06
2018-08-19T03:57:58.037Z,100298.36
2018-08-19T04:00:28.078Z,100303.69
2018-08-19T04:02:59.057Z,100309.30
2018-08-19T04:05:40.224Z,100308.62
2018-08-19T04:08:10.388Z,100309.47
2018-08-19T04:10:40.388Z,100310.54
2018-08-19T04:13:35.354Z,100308.28
2018-08-19T04:16:05.224Z,100307.87
2018-08-19T04:18:36.992Z,100309.23
2018-08-19T04:21:08.236Z,100311.30
2018-08-19T04:23:37.357Z,100312.25
2018-08-19T04:26:06.730Z,100313.02
2018-08-19T04:28:37.153Z,100303.91
2018-08-19T04:31:11.867Z,100309.89
2018-08-19T04:33:42.603Z,100308.09
2018-08-19T04:36:12.909Z,100309.27
2018-08-19T04:38:42.073Z,100306.01
2018-08-19T04:41:11.057Z,100300.26
2018-08-19T04:43:39.729Z,100302.55
2018-08-19T04:46:08.484Z,100302.70
2018-08-19T04:48:37.130Z,100300.59
2018-08-19T04:51:05.931Z,100305.23
2018-08-19T04:53:35.119Z,100305.70
2018-08-19T04:56:03.920Z,100298.84
2018-08-19T04:58:32.745Z,100305.05
2018-08-19T05:01:01.521Z,100301.77
2018-08-19T05:03:30.184Z,100305.02
2018-08-19T05:06:00.296Z,100300.55
2018-08-19T05:08:29.096Z,100301.08
2018-08-19T05:10:59.033Z,100297.16
2018-08-19T05:13:29.301Z,100292.98
2018-08-19T05:15:58.243Z,100293.31
2018-08-19T05:18:27.056Z,100291.46
2018-08-19T05:21:02.738Z,100296.39
2018-08-19T05:23:31.712Z,100294.67
2018-08-19T05:26:00.480Z,100303.94
2018-08-19T05:28:29.104Z,100295.95
2018-08-19T05:30:57.737Z,100299.89
2018-08-19T05:33:27.177Z,100299.72
2018-08-19T05:35:55.778Z,100299.03
2018-08-19T05:38:25.469Z,100301.76
2018-08-19T05:40:59.794Z,100311.99
2018-08-19T05:43:29.013Z,100314.41
2018-08-19T05:45:58.927Z,100314.41
2018-08-19T05:48:27.896Z,100322.61
2018-08-19T05:50:56.971Z,100321.05
2018-08-19T05:53:25.664Z,100324.31
2018-08-19T05:55:54.624Z,100321.70
2018-08-19T05:58:23.433Z,100326.36
2018-08-19T06:00:59.421Z,100331.87
2018-08-19T06:03:28.163Z,100333.33
2018-08-19T06:05:57.518Z,100342.23
2018-08-19T06:08:27.220Z,100347.42
2018-08-19T06:10:55.955Z,100346.02
2018-08-19T06:13:24.653Z,100351.20
2018-08-19T06:15:53.304Z,100353.29
2018-08-19T06:18:21.984Z,100357.47
2018-08-19T06:20:50.685Z,100358.48
2018-08-19T06:23:21.633Z,100361.20
2018-08-19T06:25:50.288Z,100360.16
2018-08-19T06:28:19.050Z,100352.14
2018-08-19T06:30:47.630Z,100357.91
2018-08-19T06:33:16.273Z,100354.03
2018-08-19T06:35:44.876Z,100354.91
2018-08-19T06:38:13.583Z,100358.35
2018-08-19T06:40:42.709Z,100351.08
2018-08-19T06:43:11.434Z,100350.25
2018-08-19T06:45:40.262Z,100344.78
2018-08-19T06:48:09.276Z,100346.50
2018-08-19T06:50:37.993Z,100346.12
2018-08-19T06:53:06.869Z,100350.12
2018-08-19T06:55:35.593Z,100347.19
2018-08-19T06:58:04.318Z,100344.71
2018-08-19T07:00:33.402Z,100352.24
2018-08-19T07:03:03.580Z,100352.42
2018-08-19T07:05:33.169Z,100364.23
2018-08-19T07:08:02.149Z,100360.02
2018-08-19T07:10:38.896Z,100351.97
2018-08-19T07:13:10.836Z,100355.28
2018-08-19T07:15:41.009Z,100351.91
2018-08-19T07:18:12.985Z,100351.20
2018-08-19T07:20:42.910Z,100354.86
2018-08-19T07:23:12.100Z,100354.19
2018-08-19T07:25:42.454Z,100356.13
2018-08-19T07:28:12.036Z,100343.97
2018-08-19T07:30:41.140Z,100342.36
2018-08-19T07:33:09.933Z,100353.56
2018-08-19T07:35:38.701Z,100355.55
2018-08-19T07:38:07.414Z,100356.97
2018-08-19T07:40:36.085Z,100359.45
2018-08-19T07:43:04.869Z,100362.69
2018-08-19T07:45:33.563Z,100367.02
2018-08-19T07:48:02.296Z,100360.11
2018-08-19T07:50:31.997Z,100357.62
2018-08-19T07:53:00.950Z,100358.97
2018-08-19T07:55:29.657Z,100361.82
2018-08-19T07:57:58.380Z,100358.12
2018-08-19T08:00:32.165Z,100355.04
2018-08-19T08:03:00.777Z,100357.80
2018-08-19T08:06:01.099Z,100360.30
2018-08-19T08:08:29.799Z,100358.13
2018-08-19T08:10:58.561Z,100357.15
2018-08-19T08:13:27.339Z,100359.50
2018-08-19T08:15:57.375Z,100359.82
2018-08-19T08:18:26.049Z,100356.98
2018-08-19T08:21:00.553Z,100349.82
2018-08-19T08:23:29.756Z,100348.25
2018-08-19T08:25:58.424Z,100353.88
2018-08-19T08:28:27.216Z,100343.05
2018-08-19T08:30:55.949Z,100344.88
2018-08-19T08:33:24.623Z,100350.92
2018-08-19T08:35:57.252Z,100347.72
2018-08-19T08:38:26.329Z,100346.57
2018-08-19T08:40:55.228Z,100344.76
2018-08-19T08:43:23.827Z,100346.91
2018-08-19T08:45:55.059Z,100348.80
2018-08-19T08:48:23.972Z,100344.66
2018-08-19T08:50:52.634Z,100337.45
2018-08-19T08:53:21.439Z,100343.77
2018-08-19T08:55:57.425Z,100345.00
2018-08-19T08:58:26.300Z,100341.05
2018-08-19T09:00:55.108Z,100341.13
2018-08-19T09:03:23.752Z,100338.79
2018-08-19T09:05:54.129Z,100339.80
2018-08-19T09:08:22.894Z,100337.44
2018-08-19T09:10:52.082Z,100335.10
2018-08-19T09:13:20.965Z,100325.64
2018-08-19T09:15:49.681Z,100326.36
2018-08-19T09:18:18.480Z,100326.17
2018-08-19T09:20:47.069Z,100320.23
2018-08-19T09:23:15.860Z,100320.08
2018-08-19T09:25:44.726Z,100311.80
2018-08-19T09:28:13.453Z,100307.66
2018-08-19T09:30:43.557Z,100306.34
2018-08-19T09:33:13.289Z,100303.43
2018-08-19T09:35:43.080Z,100300.78
2018-08-19T09:38:14.764Z,100300.49
2018-08-19T09:40:43.974Z,100297.13
2018-08-19T09:43:13.088Z,100298.83
2018-08-19T09:45:42.242Z,100295.95
2018-08-19T09:48:11.435Z,100293.39
2018-08-19T09:50:41.301Z,100293.75
2018-08-19T09:53:10.097Z,100298.85
2018-08-19T09:55:39.672Z,100289.34
2018-08-19T09:58:19.718Z,100288.33
2018-08-19T10:00:55.787Z,100287.97
2018-08-19T10:03:25.313Z,100283.91
2018-08-19T10:05:54.045Z,100282.53
2018-08-19T10:08:23.666Z,100279.84
2018-08-19T10:10:53.022Z,100276.95
2018-08-19T10:13:21.788Z,100271.34
2018-08-19T10:15:50.574Z,100275.94
2018-08-19T10:18:19.261Z,100272.50
2018-08-19T10:20:48.077Z,100267.23
2018-08-19T10:23:16.709Z,100264.13
2018-08-19T10:25:46.618Z,100270.22
2018-08-19T10:28:15.415Z,100269.97
2018-08-19T10:30:49.228Z,100258.79
2018-08-19T10:33:22.296Z,100267.61
2018-08-19T10:35:51.679Z,100258.86
2018-08-19T10:38:20.576Z,100259.12
2018-08-19T10:40:58.007Z,100256.80
2018-08-19T10:43:28.926Z,100255.07
2018-08-19T10:45:58.416Z,100246.00
2018-08-19T10:48:27.181Z,100254.45
2018-08-19T10:50:55.978Z,100247.29
2018-08-19T10:53:26.678Z,100255.69
2018-08-19T10:55:57.912Z,100252.52
2018-08-19T10:58:26.680Z,100249.16
2018-08-19T11:00:55.380Z,100242.76
2018-08-19T11:03:24.535Z,100246.27
2018-08-19T11:05:54.699Z,100240.32
2018-08-19T11:08:23.697Z,100236.46
2018-08-19T11:10:52.356Z,100231.27
2018-08-19T11:13:23.212Z,100234.25
2018-08-19T11:15:53.037Z,100227.67
2018-08-19T11:18:48.926Z,100222.67
2018-08-19T11:21:25.640Z,100216.23
2018-08-19T11:23:55.354Z,100219.54
2018-08-19T11:26:25.185Z,100219.42
2018-08-19T11:28:59.001Z,100216.31
2018-08-19T11:31:30.664Z,100209.84
2018-08-19T11:34:01.843Z,100214.03
2018-08-19T11:36:47.792Z,100203.25
2018-08-19T11:39:17.442Z,100204.77
2018-08-19T11:41:46.245Z,100205.31
2018-08-19T11:44:16.289Z,100196.66
2018-08-19T11:46:45.038Z,100207.64
2018-08-19T11:49:15.111Z,100203.48
2018-08-19T11:51:57.186Z,100187.81
2018-08-19T11:54:26.561Z,100183.86
2018-08-19T11:57:02.755Z,100186.47
2018-08-19T11:59:46.323Z,100188.34
2018-08-19T12:02:24.277Z,100173.72
2018-08-19T12:04:52.998Z,100187.05
2018-08-19T12:07:21.667Z,100186.37
2018-08-19T12:09:56.091Z,100188.02
2018-08-19T12:12:42.105Z,100175.53
2018-08-19T12:15:10.960Z,100169.05
2018-08-19T12:17:39.642Z,100163.04
2018-08-19T12:20:08.292Z,100157.69
2018-08-19T12:22:37.054Z,100166.20
2018-08-19T12:25:05.960Z,100167.78
2018-08-19T12:27:34.717Z,100158.44
2018-08-19T12:30:11.533Z,100160.58
2018-08-19T12:32:40.249Z,100156.34
2018-08-19T12:35:15.502Z,100146.28
2018-08-19T12:37:44.285Z,100139.35
2018-08-19T12:40:13.048Z,100142.98
2018-08-19T12:42:47.625Z,100138.91
2018-08-19T12:45:16.232Z,100145.73
2018-08-19T12:47:44.933Z,100134.66
2018-08-19T12:50:15.439Z,100134.52
2018-08-19T12:52:44.253Z,100132.13
2018-08-19T12:55:15.753Z,100130.31
2018-08-19T12:57:45.043Z,100122.13
2018-08-19T13:00:15.967Z,100119.27
2018-08-19T13:02:47.831Z,100120.44
2018-08-19T13:05:17.492Z,100125.52
2018-08-19T13:07:46.320Z,100119.37
2018-08-19T13:10:15.352Z,100110.49
2018-08-19T13:12:49.189Z,100121.41
2018-08-19T13:15:17.890Z,100114.33
2018-08-19T13:17:46.693Z,100105.21
2018-08-19T13:20:15.337Z,100106.00
2018-08-19T13:22:51.152Z,100097.17
2018-08-19T13:25:21.550Z,100089.28
2018-08-19T13:27:50.328Z,100090.69
2018-08-19T13:30:19.867Z,100087.67
2018-08-19T13:32:49.042Z,100073.64
2018-08-19T13:35:19.067Z,100077.78
2018-08-19T13:37:47.733Z,100075.96
2018-08-19T13:40:16.853Z,100080.48
2018-08-19T13:42:45.521Z,100080.26
2018-08-19T13:45:15.333Z,100078.13
2018-08-19T13:47:46.474Z,100077.58
2018-08-19T13:50:15.232Z,100079.02
2018-08-19T13:52:44.632Z,100073.08
2018-08-19T13:55:16.284Z,100071.84
2018-08-19T13:57:44.873Z,100075.17
2018-08-19T14:00:20.709Z,100065.67
2018-08-19T14:02:49.890Z,100067.95
2018-08-19T14:05:18.713Z,100055.88
2018-08-19T14:07:47.318Z,100058.53
2018-08-19T14:10:16.333Z,100066.54
2018-08-19T14:12:45.062Z,100058.00
2018-08-19T14:15:13.984Z,100054.46
2018-08-19T14:17:42.846Z,100044.28
2018-08-19T14:20:11.972Z,100048.92
2018-08-19T14:22:41.821Z,100038.30
2018-08-19T14:25:11.708Z,100040.37
2018-08-19T14:27:40.385Z,100036.27
2018-08-19T14:30:10.731Z,100036.08
2018-08-19T14:32:41.405Z,100038.98
2018-08-19T14:35:10.222Z,100033.27
2018-08-19T14:37:40.182Z,100027.38
2018-08-19T14:40:11.211Z,100020.39
2018-08-19T14:42:40.127Z,100025.75
2018-08-19T14:45:08.906Z,100023.08
2018-08-19T14:47:37.600Z,100021.73
2018-08-19T14:50:13.668Z,100019.13
2018-08-19T14:52:42.324Z,100018.20
2018-08-19T14:55:11.072Z,100023.17
2018-08-19T14:57:39.724Z,100008.75
2018-08-19T15:00:10.496Z,100013.80
2018-08-19T15:02:39.343Z,100007.09
2018-08-19T15:05:14.916Z,100008.36
2018-08-19T15:07:43.710Z,99998.75
2018-08-19T15:10:15.896Z,100007.68
2018-08-19T15:12:44.536Z,99999.53
2018-08-19T15:15:13.177Z,99997.91
2018-08-19T15:17:46.209Z,99996.55
2018-08-19T15:20:18.260Z,99985.11
2018-08-19T15:22:47.078Z,99980.49
2018-08-19T15:25:15.765Z,99992.13
2018-08-19T15:27:49.940Z,99981.84
2018-08-19T15:30:35.142Z,99981.75
2018-08-19T15:33:04.079Z,99979.69
2018-08-19T15:35:32.537Z,99977.43
2018-08-19T15:38:01.138Z,99967.89
2018-08-19T15:40:38.142Z,99975.33
2018-08-19T15:43:07.033Z,99966.55
2018-08-19T15:45:35.726Z,99962.49
2018-08-19T15:48:05.189Z,99967.64
2018-08-19T15:50:33.958Z,99964.71
2018-08-19T15:53:03.903Z,99969.36
2018-08-19T15:55:32.726Z,99963.53
2018-08-19T15:58:03.119Z,99962.70
2018-08-19T16:00:42.050Z,99957.22
2018-08-19T16:03:12.157Z,99960.04
2018-08-19T16:05:40.863Z,99959.91
2018-08-19T16:08:09.632Z,99955.84
2018-08-19T16:10:38.456Z,99950.98
2018-08-19T16:13:10.003Z,99953.13
2018-08-19T16:15:38.737Z,99949.17
2018-08-19T16:18:07.917Z,99949.73
2018-08-19T16:20:36.745Z,99944.01
2018-08-19T16:23:06.353Z,99946.48
2018-08-19T16:25:35.093Z,99940.75
2018-08-19T16:28:04.878Z,99941.79
2018-08-19T16:30:33.621Z,99949.95
2018-08-19T16:33:02.316Z,99944.87
2018-08-19T16:35:31.209Z,99944.52
2018-08-19T16:37:59.865Z,99942.57
2018-08-19T16:40:28.789Z,99945.81
2018-08-19T16:42:57.820Z,99935.33
2018-08-19T16:45:26.525Z,99945.95
2018-08-19T16:47:55.494Z,99942.05
2018-08-19T16:50:24.434Z,99942.17
2018-08-19T16:52:53.037Z,99945.03
2018-08-19T16:55:21.721Z,99939.47
2018-08-19T16:57:50.415Z,99942.31
2018-08-19T17:00:19.177Z,99942.51
2018-08-19T17:02:47.888Z,99935.13
2018-08-19T17:05:29.530Z,99939.86
2018-08-19T17:07:58.249Z,99940.24
2018-08-19T17:10:28.110Z,99936.41
2018-08-19T17:12:57.641Z,99938.41
2018-08-19T17:15:26.711Z,99938.87
2018-08-19T17:17:55.628Z,99942.69
2018-08-19T17:20:24.377Z,99946.39
2018-08-19T17:22:53.031Z,99943.75
2018-08-19T17:25:21.886Z,99945.47
2018-08-19T17:27:51.507Z,99948.81
2018-08-19T17:30:20.263Z,99941.45
2018-08-19T17:33:03.016Z,99945.80
2018-08-19T17:35:31.627Z,99947.30
2018-08-19T17:38:00.435Z,99944.21
2018-08-19T17:40:30.942Z,99944.90
2018-08-19T17:43:00.222Z,99946.02
2018-08-19T17:45:29.054Z,99949.79
2018-08-19T17:47:57.825Z,99950.77
2018-08-19T17:50:28.754Z,99951.39
2018-08-19T17:52:58.648Z,99953.02
2018-08-19T17:55:27.462Z,99959.77
2018-08-19T17:57:57.986Z,99956.44
2018-08-19T18:00:26.593Z,99958.19
2018-08-19T18:02:55.359Z,99948.36
2018-08-19T18:05:24.070Z,99960.70
2018-08-19T18:07:53.814Z,99962.70
2018-08-19T18:10:22.774Z,99955.28
2018-08-19T18:12:51.974Z,99962.66
2018-08-19T18:15:21.857Z,99963.87
2018-08-19T18:18:01.746Z,99958.94
2018-08-19T18:20:37.401Z,99961.47
2018-08-19T18:23:13.074Z,99967.90
2018-08-19T18:25:43.189Z,99969.20
2018-08-19T18:28:17.031Z,99980.34
2018-08-19T18:30:48.535Z,99978.63
2018-08-19T18:33:17.205Z,99975.05
2018-08-19T18:35:45.900Z,99979.56
2018-08-19T18:38:25.457Z,99976.16
2018-08-19T18:40:54.281Z,99980.83
2018-08-19T18:43:23.913Z,99979.58
2018-08-19T18:45:53.145Z,99979.20
2018-08-19T18:48:22.481Z,99977.32
2018-08-19T18:50:55.517Z,99980.16
2018-08-19T18:53:25.061Z,99974.55
2018-08-19T18:55:53.672Z,99979.88
2018-08-19T18:58:22.229Z,99979.17
2018-08-19T19:00:57.088Z,99978.09
2018-08-19T19:03:26.086Z,99981.89
2018-08-19T19:05:56.925Z,99980.95
2018-08-19T19:08:25.704Z,99979.45
2018-08-19T19:10:59.513Z,99979.56
2018-08-19T19:13:30.531Z,99982.22
2018-08-19T19:15:59.566Z,99977.58
2018-08-19T19:18:29.591Z,99978.28
2018-08-19T19:21:02.888Z,99975.67
2018-08-19T19:23:39.579Z,99974.08
2018-08-19T19:26:09.167Z,99971.36
2018-08-19T19:28:38.278Z,99963.78
2018-08-19T19:31:12.627Z,99963.20
2018-08-19T19:33:41.596Z,99964.80
2018-08-19T19:36:16.410Z,99953.75
2018-08-19T19:38:56.588Z,99955.02
2018-08-19T19:41:27.896Z,99953.56
2018-08-19T19:43:56.914Z,99954.05
2018-08-19T19:46:26.211Z,99958.73
2018-08-19T19:48:55.454Z,99949.79
2018-08-19T19:51:24.290Z,99948.79
2018-08-19T19:53:52.968Z,99952.64
2018-08-19T19:56:21.642Z,99953.02
2018-08-19T19:58:50.947Z,99951.67
2018-08-19T20:01:19.638Z,99952.08
2018-08-19T20:03:52.827Z,99951.85
2018-08-19T20:06:24.203Z,99952.90
2018-08-19T20:08:53.702Z,99955.17
2018-08-19T20:11:29.797Z,99948.30
2018-08-19T20:14:00.028Z,99955.36
2018-08-19T20:16:30.101Z,99943.86
2018-08-19T20:18:58.968Z,99952.30
2018-08-19T20:21:28.603Z,99952.88
2018-08-19T20:23:58.520Z,99954.52
2018-08-19T20:26:28.248Z,99949.13
2018-08-19T20:28:58.255Z,99954.77
2018-08-19T20:31:27.920Z,99955.61
2018-08-19T20:33:56.899Z,99956.25
2018-08-19T20:36:25.645Z,99952.80
2018-08-19T20:38:54.364Z,99953.05
2018-08-19T20:41:23.269Z,99955.69
2018-08-19T20:43:52.977Z,99960.02
2018-08-19T20:46:21.645Z,99948.18
2018-08-19T20:48:50.336Z,99945.98
2018-08-19T20:51:19.772Z,99939.76
2018-08-19T20:53:48.660Z,99943.13
2018-08-19T20:56:17.315Z,99941.39
2018-08-19T20:58:46.109Z,99943.02
2018-08-19T21:01:20.040Z,99940.52
2018-08-19T21:03:48.717Z,99943.80
2018-08-19T21:06:17.285Z,99940.67
2018-08-19T21:08:45.912Z,99937.89
2018-08-19T21:11:14.538Z,99941.71
2018-08-19T21:13:43.115Z,99945.61
2018-08-19T21:16:11.880Z,99941.02
2018-08-19T21:18:40.535Z,99934.16
2018-08-19T21:21:09.140Z,99941.64
2018-08-19T21:23:38.801Z,99940.66
2018-08-19T21:26:07.737Z,99939.17
2018-08-19T21:28:36.439Z,99940.20
2018-08-19T21:31:05.128Z,99945.00
2018-08-19T21:33:33.826Z,99941.59
2018-08-19T21:36:02.550Z,99935.80
2018-08-19T21:38:31.254Z,99938.75
2018-08-19T21:40:59.941Z,99939.28
2018-08-19T21:43:30.409Z,99929.98
2018-08-19T21:46:00.577Z,99937.59
2018-08-19T21:48:29.245Z,99930.70
2018-08-19T21:50:57.848Z,99925.95
2018-08-19T21:53:26.533Z,99925.95
2018-08-19T21:55:55.180Z,99921.56
2018-08-19T21:58:23.884Z,99925.77
2018-08-19T22:01:00.181Z,99924.75
2018-08-19T22:03:34.230Z,99924.39
2018-08-19T22:06:08.592Z,99926.00
2018-08-19T22:08:37.229Z,99929.05
2018-08-19T22:11:05.913Z,99922.16
2018-08-19T22:13:36.658Z,99922.06
2018-08-19T22:16:06.868Z,99920.23
2018-08-19T22:18:36.902Z,99918.66
2018-08-19T22:21:14.224Z,99912.20
2018-08-19T22:23:44.381Z,99911.67
2018-08-19T22:26:14.373Z,99911.05
2018-08-19T22:28:43.360Z,99908.00
2018-08-19T22:31:23.648Z,99904.13
2018-08-19T22:33:54.601Z,99905.11
2018-08-19T22:36:23.400Z,99897.05
2018-08-19T22:38:52.958Z,99901.19
2018-08-19T22:41:28.538Z,99896.80
2018-08-19T22:43:57.778Z,99895.09
2018-08-19T22:46:27.131Z,99891.81
2018-08-19T22:48:56.336Z,99892.59
2018-08-19T22:51:25.153Z,99891.31
2018-08-19T22:53:55.325Z,99892.77
2018-08-19T22:56:24.241Z,99890.44
2018-08-19T22:58:52.901Z,99885.27
2018-08-19T23:01:21.976Z,99884.18
2018-08-19T23:03:59.512Z,99883.81
2018-08-19T23:06:28.886Z,99880.15
2018-08-19T23:08:58.280Z,99881.39
2018-08-19T23:11:48.324Z,99874.15
2018-08-19T23:14:28.092Z,99873.80
2018-08-19T23:16:56.711Z,99878.70
2018-08-19T23:19:25.428Z,99870.02
2018-08-19T23:21:54.140Z,99874.05
2018-08-19T23:24:23.461Z,99870.91
2018-08-19T23:26:52.114Z,99861.60
2018-08-19T23:29:20.799Z,99863.66
2018-08-19T23:31:49.528Z,99860.48
2018-08-19T23:34:18.097Z,99860.98
2018-08-19T23:36:46.896Z,99859.53
2018-08-19T23:39:15.523Z,99862.72
2018-08-19T23:41:44.193Z,99860.52
2018-08-19T23:44:13.889Z,99855.51
2018-08-19T23:46:42.549Z,99856.59
2018-08-19T23:49:11.273Z,99850.59
2018-08-19T23:51:40.241Z,99858.16
2018-08-19T23:54:08.961Z,99846.92
2018-08-19T23:56:37.726Z,99852.03
2018-08-19T23:59:06.427Z,99851.02
